createdAt,value
2018-02-22T00:00:33.844Z,85.60
2018-02-22T00:03:01.482Z,85.70
2018-02-22T00:05:29.062Z,85.90
2018-02-22T00:07:56.661Z,85.50
2018-02-22T00:10:24.225Z,87.00
2018-02-22T00:12:51.847Z,86.60
2018-02-22T00:15:19.450Z,86.90
2018-02-22T00:17:47.051Z,86.70
2018-02-22T00:20:14.678Z,86.40
2018-02-22T00:22:42.295Z,86.40
2018-02-22T00:25:09.895Z,86.20
2018-02-22T00:27:37.504Z,86.50
2018-02-22T00:30:05.127Z,86.20
2018-02-22T00:32:32.731Z,86.90
2018-02-22T00:35:00.325Z,87.10
2018-02-22T00:37:27.924Z,87.00
2018-02-22T00:39:56.344Z,86.80
2018-02-22T00:42:23.931Z,86.70
2018-02-22T00:45:05.599Z,87.00
2018-02-22T00:47:33.151Z,85.50
2018-02-22T00:50:00.761Z,86.70
2018-02-22T00:52:29.123Z,85.90
2018-02-22T00:54:56.731Z,85.90
2018-02-22T00:57:24.375Z,85.60
2018-02-22T00:59:52.776Z,85.30
2018-02-22T01:02:20.381Z,85.30
2018-02-22T01:04:48.028Z,85.80
2018-02-22T01:07:15.655Z,86.30
2018-02-22T01:09:43.262Z,86.30
2018-02-22T01:12:10.876Z,84.90
2018-02-22T01:14:38.468Z,85.40
2018-02-22T01:17:06.033Z,85.50
2018-02-22T01:19:33.623Z,85.30
2018-02-22T01:22:02.007Z,85.80
2018-02-22T01:24:30.365Z,85.90
2018-02-22T01:26:57.947Z,85.90
2018-02-22T01:29:26.308Z,85.60
2018-02-22T01:31:53.914Z,85.50
2018-02-22T01:34:21.549Z,85.30
2018-02-22T01:36:49.919Z,86.20
2018-02-22T01:39:18.262Z,86.20
2018-02-22T01:41:45.868Z,86.10
2018-02-22T01:44:14.210Z,85.70
2018-02-22T01:46:41.843Z,86.40
2018-02-22T01:49:09.452Z,86.40
2018-02-22T01:51:37.815Z,87.00
2018-02-22T01:54:05.411Z,86.20
2018-02-22T01:56:33.045Z,86.70
2018-02-22T01:59:00.640Z,86.70
2018-02-22T02:01:28.235Z,86.10
2018-02-22T02:03:55.807Z,86.50
2018-02-22T02:06:23.366Z,86.40
2018-02-22T02:08:51.011Z,85.90
2018-02-22T02:11:18.669Z,85.70
2018-02-22T02:13:46.266Z,85.30
2018-02-22T02:16:13.846Z,86.80
2018-02-22T02:18:42.223Z,87.40
2018-02-22T02:21:10.598Z,87.20
2018-02-22T02:23:39.000Z,87.70
2018-02-22T02:26:06.562Z,87.60
2018-02-22T02:28:34.171Z,88.20
2018-02-22T02:31:01.784Z,89.30
2018-02-22T02:33:29.408Z,89.80
2018-02-22T02:35:57.795Z,88.80
2018-02-22T02:38:26.179Z,89.00
2018-02-22T02:40:54.557Z,88.70
2018-02-22T02:43:22.888Z,87.60
2018-02-22T02:45:50.467Z,87.60
2018-02-22T02:48:18.056Z,88.00
2018-02-22T02:50:46.430Z,87.70
2018-02-22T02:53:14.807Z,87.80
2018-02-22T02:55:43.175Z,87.50
2018-02-22T02:58:11.549Z,87.10
2018-02-22T03:03:42.788Z,88.90
2018-02-22T03:06:10.375Z,89.40
2018-02-22T03:08:38.023Z,90.20
2018-02-22T03:11:05.591Z,90.10
2018-02-22T03:13:33.208Z,90.00
2018-02-22T03:16:00.775Z,90.00
2018-02-22T03:18:28.392Z,90.10
2018-02-22T03:20:56.747Z,90.00
2018-02-22T03:23:24.399Z,90.00
2018-02-22T03:25:52.018Z,88.80
2018-02-22T03:28:19.667Z,89.80
2018-02-22T03:30:47.258Z,89.60
2018-02-22T03:33:14.862Z,89.30
2018-02-22T03:35:42.431Z,88.60
2018-02-22T03:38:10.763Z,89.90
2018-02-22T03:40:38.395Z,89.90
2018-02-22T03:43:05.998Z,89.70
2018-02-22T03:45:33.571Z,89.00
2018-02-22T03:48:01.164Z,89.60
2018-02-22T03:50:28.771Z,90.00
2018-02-22T03:52:56.372Z,89.10
2018-02-22T03:55:24.720Z,89.00
2018-02-22T03:57:52.363Z,88.90
2018-02-22T04:00:19.967Z,89.60
2018-02-22T04:02:48.306Z,90.10
2018-02-22T04:05:15.914Z,90.10
2018-02-22T04:07:43.508Z,89.80
2018-02-22T04:10:11.108Z,89.60
2018-02-22T04:12:38.671Z,89.80
2018-02-22T04:15:06.239Z,90.30
2018-02-22T04:17:34.598Z,90.70
2018-02-22T04:20:02.246Z,90.60
2018-02-22T04:22:29.829Z,90.60
2018-02-22T04:24:57.451Z,90.50
2018-02-22T04:27:25.073Z,90.70
2018-02-22T04:29:53.431Z,89.60
2018-02-22T04:32:21.062Z,89.50
2018-02-22T04:34:48.627Z,90.40
2018-02-22T04:37:16.254Z,90.20
2018-02-22T04:39:43.888Z,90.40
2018-02-22T04:42:12.254Z,90.90
2018-02-22T04:44:39.837Z,90.90
2018-02-22T04:47:07.510Z,90.50
2018-02-22T04:49:35.067Z,90.80
2018-02-22T04:52:02.643Z,90.40
2018-02-22T04:54:30.260Z,90.50
2018-02-22T04:56:57.913Z,90.80
2018-02-22T04:59:25.519Z,90.40
2018-02-22T05:01:53.115Z,90.30
2018-02-22T05:04:20.756Z,90.30
2018-02-22T05:06:48.327Z,90.40
2018-02-22T05:09:15.914Z,90.40
2018-02-22T05:11:43.550Z,90.00
2018-02-22T05:14:11.177Z,90.00
2018-02-22T05:16:38.767Z,90.00
2018-02-22T05:19:06.366Z,88.80
2018-02-22T05:21:34.732Z,89.40
2018-02-22T05:24:02.374Z,89.30
2018-02-22T05:26:29.959Z,89.30
2018-02-22T05:28:58.340Z,89.30
2018-02-22T05:31:26.714Z,88.10
2018-02-22T05:33:54.343Z,88.00
2018-02-22T05:36:21.960Z,87.70
2018-02-22T05:38:49.570Z,86.70
2018-02-22T05:41:17.156Z,86.20
2018-02-22T05:43:44.761Z,86.40
2018-02-22T05:46:12.376Z,86.50
2018-02-22T05:48:40.019Z,85.80
2018-02-22T05:51:07.621Z,85.30
2018-02-22T05:53:35.239Z,85.30
2018-02-22T05:56:02.875Z,84.90
2018-02-22T05:58:30.489Z,85.10
2018-02-22T06:00:58.842Z,85.60
2018-02-22T06:03:26.479Z,85.50
2018-02-22T06:05:54.095Z,85.40
2018-02-22T06:08:22.437Z,86.30
2018-02-22T06:10:50.111Z,86.30
2018-02-22T06:13:17.715Z,85.90
2018-02-22T06:15:45.351Z,85.40
2018-02-22T06:18:13.706Z,83.90
2018-02-22T06:20:41.311Z,83.80
2018-02-22T06:23:08.934Z,83.60
2018-02-22T06:25:36.564Z,83.90
2018-02-22T06:28:04.223Z,83.90
2018-02-22T06:30:31.846Z,83.70
2018-02-22T06:32:59.536Z,83.30
2018-02-22T06:35:27.845Z,82.80
2018-02-22T06:37:55.462Z,82.70
2018-02-22T06:40:23.099Z,82.60
2018-02-22T06:42:51.505Z,81.70
2018-02-22T06:45:19.119Z,82.40
2018-02-22T06:47:46.717Z,80.80
2018-02-22T06:50:14.314Z,80.60
2018-02-22T06:52:41.991Z,80.40
2018-02-22T06:55:09.560Z,79.60
2018-02-22T06:57:37.158Z,79.60
2018-02-22T07:00:04.759Z,80.60
2018-02-22T07:02:32.345Z,78.90
2018-02-22T07:04:59.959Z,79.40
2018-02-22T07:07:27.572Z,79.30
2018-02-22T07:09:55.964Z,78.10
2018-02-22T07:12:24.298Z,77.80
2018-02-22T07:14:51.938Z,77.80
2018-02-22T07:17:19.531Z,77.70
2018-02-22T07:19:47.166Z,77.70
2018-02-22T07:22:14.744Z,77.30
2018-02-22T07:24:42.382Z,77.90
2018-02-22T07:27:09.983Z,77.60
2018-02-22T07:29:57.148Z,77.60
2018-02-22T07:32:24.746Z,77.20
2018-02-22T07:34:52.393Z,75.50
2018-02-22T07:37:19.999Z,75.40
2018-02-22T07:39:48.365Z,75.60
2018-02-22T07:42:15.972Z,75.50
2018-02-22T07:44:43.622Z,74.80
2018-02-22T07:47:11.231Z,74.50
2018-02-22T07:49:38.819Z,74.60
2018-02-22T07:52:06.475Z,73.80
2018-02-22T07:54:34.827Z,73.20
2018-02-22T07:57:02.395Z,73.20
2018-02-22T07:59:30.000Z,73.00
2018-02-22T08:01:57.608Z,71.90
2018-02-22T08:04:25.240Z,72.10
2018-02-22T08:06:52.845Z,72.70
2018-02-22T08:09:20.463Z,73.90
2018-02-22T08:11:48.103Z,73.00
2018-02-22T08:14:15.720Z,72.80
2018-02-22T08:16:43.316Z,71.80
2018-02-22T08:19:10.952Z,72.50
2018-02-22T08:21:39.299Z,70.90
2018-02-22T08:24:06.940Z,70.80
2018-02-22T08:26:34.590Z,71.30
2018-02-22T08:29:02.176Z,71.90
2018-02-22T08:31:29.763Z,70.60
2018-02-22T08:33:57.396Z,69.80
2018-02-22T08:36:24.990Z,69.80
2018-02-22T08:38:52.631Z,69.50
2018-02-22T08:41:20.259Z,68.90
2018-02-22T08:43:47.914Z,66.70
2018-02-22T08:46:15.515Z,65.50
2018-02-22T08:48:43.130Z,66.60
2018-02-22T08:51:10.699Z,66.60
2018-02-22T08:53:38.308Z,66.70
2018-02-22T08:56:05.891Z,66.40
2018-02-22T08:58:34.247Z,67.30
2018-02-22T09:01:01.860Z,67.20
2018-02-22T09:03:29.515Z,66.50
2018-02-22T09:05:57.137Z,66.90
2018-02-22T09:08:24.732Z,66.30
2018-02-22T09:10:52.351Z,66.60
2018-02-22T09:13:19.917Z,67.00
2018-02-22T09:15:47.487Z,66.70
2018-02-22T09:18:15.880Z,66.30
2018-02-22T09:20:43.482Z,66.20
2018-02-22T09:23:11.070Z,65.40
2018-02-22T09:25:39.433Z,63.30
2018-02-22T09:28:07.039Z,63.30
2018-02-22T09:30:34.604Z,62.10
2018-02-22T09:33:02.214Z,61.80
2018-02-22T09:35:29.839Z,60.90
2018-02-22T09:37:57.444Z,59.70
2018-02-22T09:40:25.095Z,60.50
2018-02-22T09:42:52.730Z,60.00
2018-02-22T09:45:20.328Z,61.30
2018-02-22T09:47:47.950Z,60.20
2018-02-22T09:50:15.565Z,59.80
2018-02-22T09:52:43.964Z,58.80
2018-02-22T09:55:11.592Z,58.80
2018-02-22T09:57:39.199Z,57.50
2018-02-22T10:00:06.811Z,58.50
2018-02-22T10:02:35.199Z,59.40
2018-02-22T10:05:03.533Z,59.00
2018-02-22T10:07:31.154Z,58.90
2018-02-22T10:09:59.535Z,58.00
2018-02-22T10:12:27.168Z,58.00
2018-02-22T10:14:54.763Z,57.70
2018-02-22T10:17:22.350Z,57.70
2018-02-22T10:19:49.995Z,58.00
2018-02-22T10:22:17.656Z,58.00
2018-02-22T10:24:45.274Z,58.30
2018-02-22T10:27:12.911Z,57.70
2018-02-22T10:29:40.491Z,58.10
2018-02-22T10:32:08.127Z,58.90
2018-02-22T10:34:35.693Z,57.70
2018-02-22T10:37:03.256Z,57.50
2018-02-22T10:39:30.886Z,56.20
2018-02-22T10:41:58.482Z,55.00
2018-02-22T10:44:26.100Z,55.00
2018-02-22T10:46:53.727Z,55.30
2018-02-22T10:49:22.115Z,54.50
2018-02-22T10:51:50.511Z,53.30
2018-02-22T10:54:18.143Z,53.30
2018-02-22T10:56:46.562Z,53.50
2018-02-22T10:59:14.178Z,53.50
2018-02-22T11:01:47.322Z,52.40
2018-02-22T11:04:14.932Z,53.10
2018-02-22T11:06:42.596Z,53.40
2018-02-22T11:09:10.927Z,53.00
2018-02-22T11:11:38.527Z,53.00
2018-02-22T11:14:06.118Z,52.70
2018-02-22T11:16:33.682Z,53.30
2018-02-22T11:19:01.275Z,53.30
2018-02-22T11:21:28.923Z,53.80
2018-02-22T11:23:56.477Z,52.40
2018-02-22T11:26:24.132Z,52.10
2018-02-22T11:28:51.700Z,51.30
2018-02-22T11:31:19.335Z,50.60
2018-02-22T11:33:46.920Z,50.70
2018-02-22T11:36:14.539Z,49.50
2018-02-22T11:38:42.927Z,50.20
2018-02-22T11:41:11.325Z,50.90
2018-02-22T11:43:38.940Z,50.80
2018-02-22T11:46:06.553Z,51.20
2018-02-22T11:48:34.159Z,51.00
2018-02-22T11:51:01.787Z,51.80
2018-02-22T11:53:29.424Z,50.30
2018-02-22T11:55:57.049Z,49.80
2018-02-22T11:58:24.681Z,51.00
2018-02-22T12:00:52.283Z,51.70
2018-02-22T12:03:20.642Z,52.40
2018-02-22T12:05:48.263Z,52.30
2018-02-22T12:08:15.841Z,51.50
2018-02-22T12:10:43.460Z,51.10
2018-02-22T12:13:11.065Z,51.40
2018-02-22T12:15:38.676Z,51.70
2018-02-22T12:18:06.259Z,50.40
2018-02-22T12:20:33.844Z,51.70
2018-02-22T12:23:01.468Z,50.70
2018-02-22T12:25:29.044Z,51.50
2018-02-22T12:27:56.639Z,48.40
2018-02-22T12:30:24.241Z,49.10
2018-02-22T12:32:51.804Z,49.00
2018-02-22T12:35:19.418Z,51.10
2018-02-22T12:37:47.048Z,51.70
2018-02-22T12:40:14.687Z,50.60
2018-02-22T12:42:42.316Z,51.50
2018-02-22T12:45:09.909Z,51.80
2018-02-22T12:47:37.507Z,51.70
2018-02-22T12:50:05.119Z,50.90
2018-02-22T12:52:32.719Z,51.50
2018-02-22T12:55:00.342Z,52.00
2018-02-22T12:57:27.956Z,52.10
2018-02-22T12:59:55.611Z,50.80
2018-02-22T13:02:23.157Z,51.00
2018-02-22T13:04:50.765Z,51.50
2018-02-22T13:07:19.122Z,50.10
2018-02-22T13:09:46.747Z,50.70
2018-02-22T13:12:14.348Z,50.70
2018-02-22T13:14:41.919Z,52.80
2018-02-22T13:17:10.307Z,52.60
2018-02-22T13:19:38.639Z,53.70
2018-02-22T13:22:06.230Z,53.70
2018-02-22T13:24:34.640Z,54.20
2018-02-22T13:27:02.209Z,54.20
2018-02-22T13:29:29.767Z,54.20
2018-02-22T13:31:57.382Z,53.50
2018-02-22T13:34:31.750Z,54.20
2018-02-22T13:36:59.352Z,53.30
2018-02-22T13:39:26.939Z,53.20
2018-02-22T13:41:55.311Z,52.60
2018-02-22T13:44:35.328Z,53.90
2018-02-22T13:47:02.950Z,53.90
2018-02-22T13:49:42.290Z,53.80
2018-02-22T13:52:09.911Z,54.90
2018-02-22T13:54:37.528Z,54.20
2018-02-22T13:57:23.858Z,55.30
2018-02-22T13:59:51.472Z,52.50
2018-02-22T14:02:27.906Z,53.50
2018-02-22T14:10:59.559Z,54.00
2018-02-22T14:13:27.133Z,52.70
2018-02-22T14:15:54.687Z,53.10
2018-02-22T14:18:22.323Z,51.60
2018-02-22T14:20:49.991Z,52.20
2018-02-22T14:23:17.608Z,50.70
2018-02-22T14:25:45.988Z,50.90
2018-02-22T14:28:13.628Z,50.80
2018-02-22T14:30:41.260Z,52.10
2018-02-22T14:33:08.872Z,52.80
2018-02-22T14:35:37.227Z,52.40
2018-02-22T14:38:04.823Z,52.40
2018-02-22T14:40:32.439Z,52.80
2018-02-22T14:43:00.086Z,51.30
2018-02-22T14:45:28.370Z,52.00
2018-02-22T14:47:55.961Z,53.10
2018-02-22T14:50:24.364Z,52.40
2018-02-22T14:52:51.991Z,52.80
2018-02-22T14:55:19.571Z,52.30
2018-02-22T14:57:47.958Z,53.40
2018-02-22T15:00:15.575Z,53.40
2018-02-22T15:02:43.140Z,53.40
2018-02-22T15:05:10.804Z,53.10
2018-02-22T15:07:38.392Z,53.40
2018-02-22T15:10:05.988Z,53.00
2018-02-22T15:12:33.592Z,53.30
2018-02-22T15:15:01.232Z,53.20
2018-02-22T15:17:28.864Z,54.10
2018-02-22T15:19:56.490Z,53.30
2018-02-22T15:22:24.853Z,53.10
2018-02-22T15:24:53.228Z,53.30
2018-02-22T15:27:20.852Z,53.40
2018-02-22T15:29:48.443Z,53.00
2018-02-22T15:32:16.063Z,53.90
2018-02-22T15:34:43.727Z,52.90
2018-02-22T15:37:11.366Z,52.80
2018-02-22T15:39:38.931Z,53.80
2018-02-22T15:42:07.448Z,53.20
2018-02-22T15:44:35.045Z,52.90
2018-02-22T15:47:03.485Z,54.80
2018-02-22T15:49:31.075Z,54.70
2018-02-22T15:52:09.890Z,53.10
2018-02-22T15:54:37.462Z,53.90
2018-02-22T15:57:05.611Z,54.50
2018-02-22T15:59:33.202Z,53.90
2018-02-22T16:02:01.553Z,54.50
2018-02-22T16:04:29.184Z,54.40
2018-02-22T16:06:56.789Z,55.10
2018-02-22T16:09:25.191Z,54.50
2018-02-22T16:11:58.943Z,54.00
2018-02-22T16:14:26.570Z,54.70
2018-02-22T16:16:54.196Z,55.10
2018-02-22T16:19:22.560Z,54.60
2018-02-22T16:21:50.163Z,54.40
2018-02-22T16:24:17.805Z,55.00
2018-02-22T16:26:46.203Z,55.20
2018-02-22T16:29:16.931Z,55.20
2018-02-22T16:31:44.545Z,55.10
2018-02-22T16:34:12.204Z,56.50
2018-02-22T16:36:39.823Z,56.00
2018-02-22T16:39:07.416Z,54.80
2018-02-22T16:41:35.020Z,55.70
2018-02-22T16:44:07.696Z,56.10
2018-02-22T16:46:36.068Z,55.30
2018-02-22T16:49:04.707Z,55.30
2018-02-22T16:51:32.330Z,55.40
2018-02-22T16:53:59.915Z,55.30
2018-02-22T16:56:27.539Z,56.30
2018-02-22T16:58:55.163Z,56.20
2018-02-22T17:01:22.750Z,55.80
2018-02-22T17:03:50.400Z,55.60
2018-02-22T17:06:18.020Z,56.50
2018-02-22T17:08:45.594Z,56.60
2018-02-22T17:11:13.245Z,56.10
2018-02-22T17:13:40.846Z,56.40
2018-02-22T17:16:08.460Z,55.90
2018-02-22T17:18:36.128Z,56.50
2018-02-22T17:21:03.722Z,56.50
2018-02-22T17:23:31.337Z,55.70
2018-02-22T17:26:04.573Z,56.20
2018-02-22T17:28:37.776Z,56.10
2018-02-22T17:31:10.955Z,56.80
2018-02-22T17:33:38.559Z,56.70
2018-02-22T17:36:13.831Z,57.20
2018-02-22T17:38:56.311Z,57.10
2018-02-22T17:41:32.483Z,57.00
2018-02-22T17:44:09.912Z,57.00
2018-02-22T17:46:55.616Z,57.00
2018-02-22T17:49:23.216Z,57.40
2018-02-22T17:51:50.800Z,56.50
2018-02-22T17:54:18.430Z,57.40
2018-02-22T17:56:46.045Z,57.30
2018-02-22T17:59:13.601Z,56.80
2018-02-22T18:01:41.216Z,57.00
2018-02-22T18:04:08.800Z,57.50
2018-02-22T18:06:36.400Z,58.00
2018-02-22T18:09:05.024Z,58.00
2018-02-22T18:11:34.619Z,57.80
2018-02-22T18:14:06.423Z,57.30
2018-02-22T18:16:34.030Z,58.50
2018-02-22T18:19:01.679Z,58.30
2018-02-22T18:21:30.020Z,57.80
2018-02-22T18:23:57.604Z,57.80
2018-02-22T18:26:25.185Z,58.60
2018-02-22T18:28:53.575Z,57.30
2018-02-22T18:31:21.184Z,57.30
2018-02-22T18:33:48.821Z,57.60
2018-02-22T18:36:17.179Z,57.00
2018-02-22T18:38:50.550Z,57.00
2018-02-22T18:41:18.890Z,58.60
2018-02-22T18:43:46.492Z,58.50
2018-02-22T18:46:14.894Z,59.50
2018-02-22T18:48:42.453Z,59.50
2018-02-22T18:51:10.034Z,57.70
2018-02-22T18:53:37.665Z,57.50
2018-02-22T18:56:05.293Z,58.90
2018-02-22T18:58:32.870Z,58.80
2018-02-22T19:01:01.253Z,57.50
2018-02-22T19:03:29.610Z,58.30
2018-02-22T19:05:59.250Z,58.20
2018-02-22T19:08:26.859Z,58.70
2018-02-22T19:10:54.511Z,58.00
2018-02-22T19:13:22.354Z,58.80
2018-02-22T19:15:49.925Z,59.30
2018-02-22T19:18:17.525Z,58.60
2018-02-22T19:20:45.138Z,59.10
2018-02-22T19:23:12.771Z,59.00
2018-02-22T19:25:41.153Z,58.90
2018-02-22T19:28:08.770Z,58.90
2018-02-22T19:30:36.383Z,59.40
2018-02-22T19:33:03.948Z,59.60
2018-02-22T19:35:31.568Z,59.60
2018-02-22T19:37:59.154Z,59.50
2018-02-22T19:40:26.755Z,59.30
2018-02-22T19:42:54.337Z,60.00
2018-02-22T19:45:21.991Z,58.90
2018-02-22T19:47:49.566Z,60.00
2018-02-22T19:50:17.184Z,58.60
2018-02-22T19:52:44.807Z,59.30
2018-02-22T19:55:13.199Z,59.40
2018-02-22T19:57:40.799Z,59.40
2018-02-22T20:00:08.430Z,59.10
2018-02-22T20:02:36.045Z,58.90
2018-02-22T20:10:52.398Z,58.50
2018-02-22T20:13:20.739Z,58.60
2018-02-22T20:15:48.365Z,58.70
2018-02-22T20:18:15.933Z,58.00
2018-02-22T20:20:43.550Z,59.00
2018-02-22T20:26:29.102Z,58.50
2018-02-22T20:28:56.709Z,58.80
2018-02-22T20:31:24.323Z,59.80
2018-02-22T20:33:51.959Z,58.90
2018-02-22T20:36:19.547Z,58.90
2018-02-22T20:38:47.191Z,58.90
2018-02-22T20:41:14.812Z,59.30
2018-02-22T20:43:42.439Z,58.10
2018-02-22T20:46:10.075Z,59.70
2018-02-22T20:48:37.726Z,59.10
2018-02-22T20:51:20.261Z,58.50
2018-02-22T20:53:47.859Z,58.70
2018-02-22T20:56:15.454Z,59.20
2018-02-22T20:58:43.056Z,59.80
2018-02-22T21:01:10.707Z,59.90
2018-02-22T21:03:38.309Z,59.50
2018-02-22T21:06:05.951Z,60.90
2018-02-22T21:08:33.553Z,60.20
2018-02-22T21:11:01.148Z,60.10
2018-02-22T21:13:28.727Z,59.00
2018-02-22T21:15:56.346Z,59.50
2018-02-22T21:18:23.925Z,59.40
2018-02-22T21:20:51.560Z,60.10
2018-02-22T21:23:19.147Z,60.10
2018-02-22T21:25:46.719Z,60.50
2018-02-22T21:28:14.284Z,60.60
2018-02-22T21:30:41.887Z,60.60
2018-02-22T21:33:09.511Z,60.80
2018-02-22T21:35:37.104Z,60.20
2018-02-22T21:38:05.453Z,60.10
2018-02-22T21:40:33.075Z,60.10
2018-02-22T21:43:00.713Z,61.00
2018-02-22T21:45:28.298Z,60.70
2018-02-22T21:47:55.917Z,61.00
2018-02-22T21:50:23.467Z,60.80
2018-02-22T21:52:51.106Z,60.20
2018-02-22T21:55:18.692Z,60.30
2018-02-22T21:57:46.243Z,60.60
2018-02-22T22:00:13.818Z,60.40
2018-02-22T22:02:42.184Z,60.80
2018-02-22T22:05:10.594Z,60.40
2018-02-22T22:07:38.195Z,60.20
2018-02-22T22:10:05.833Z,61.00
2018-02-22T22:12:33.444Z,61.40
2018-02-22T22:15:01.068Z,62.20
2018-02-22T22:17:28.698Z,61.50
2018-02-22T22:19:56.293Z,61.80
2018-02-22T22:22:23.934Z,61.30
2018-02-22T22:24:51.545Z,61.70
2018-02-22T22:27:19.133Z,61.20
2018-02-22T22:29:46.735Z,61.30
2018-02-22T22:32:14.320Z,61.30
2018-02-22T22:34:41.918Z,60.90
2018-02-22T22:37:09.540Z,60.50
2018-02-22T22:39:37.184Z,62.60
2018-02-22T22:42:04.778Z,60.90
2018-02-22T22:44:32.391Z,61.10
2018-02-22T22:46:59.991Z,61.60
2018-02-22T22:49:27.595Z,61.50
2018-02-22T22:51:55.985Z,62.20
2018-02-22T22:54:23.550Z,62.10
2018-02-22T22:56:51.180Z,62.10
2018-02-22T22:59:18.774Z,61.50
2018-02-22T23:01:46.348Z,62.20
2018-02-22T23:04:13.969Z,61.80
2018-02-22T23:06:42.340Z,62.40
2018-02-22T23:09:09.948Z,62.40
2018-02-22T23:11:37.519Z,62.90
2018-02-22T23:14:05.095Z,62.80
2018-02-22T23:16:32.736Z,62.00
2018-02-22T23:19:00.343Z,62.50
2018-02-22T23:21:28.707Z,63.70
2018-02-22T23:23:56.326Z,63.20
2018-02-22T23:26:23.898Z,62.40
2018-02-22T23:28:51.500Z,63.30
2018-02-22T23:31:19.870Z,63.70
2018-02-22T23:33:47.479Z,63.70
2018-02-22T23:36:15.863Z,63.50
2018-02-22T23:38:43.486Z,62.70
2018-02-22T23:41:27.662Z,62.90
2018-02-22T23:43:55.255Z,62.80
2018-02-22T23:46:22.850Z,63.80
2018-02-22T23:48:51.219Z,64.00
2018-02-22T23:51:18.833Z,63.90
2018-02-22T23:53:46.451Z,62.40
2018-02-22T23:56:14.796Z,62.90
2018-02-22T23:58:42.452Z,62.90
